createdAt,value
2018-12-30T00:02:36.586Z,7.00
2018-12-30T00:05:42.165Z,6.13
2018-12-30T00:08:47.278Z,2.50
2018-12-30T00:11:52.422Z,3.37
2018-12-30T00:14:57.686Z,4.00
2018-12-30T00:18:02.779Z,1.23
2018-12-30T00:21:09.152Z,1.73
2018-12-30T00:24:14.663Z,3.10
2018-12-30T00:27:20.274Z,1.10
2018-12-30T00:30:25.363Z,2.10
2018-12-30T00:33:30.477Z,4.90
2018-12-30T00:36:35.564Z,2.40
2018-12-30T00:39:40.722Z,3.83
2018-12-30T00:42:45.800Z,3.07
2018-12-30T00:45:50.910Z,2.20
2018-12-30T00:48:56.499Z,4.30
2018-12-30T00:52:01.623Z,2.57
2018-12-30T00:55:07.104Z,4.03
2018-12-30T00:58:12.227Z,4.23
2018-12-30T01:01:17.340Z,4.43
2018-12-30T01:04:22.632Z,3.13
2018-12-30T01:07:27.736Z,4.43
2018-12-30T01:10:33.246Z,7.03
2018-12-30T01:13:38.353Z,3.67
2018-12-30T01:16:43.566Z,6.30
2018-12-30T01:19:48.700Z,5.73
2018-12-30T01:22:53.807Z,5.53
2018-12-30T01:25:58.926Z,3.93
2018-12-30T01:29:04.052Z,3.77
2018-12-30T01:32:09.551Z,5.43
2018-12-30T01:35:14.661Z,5.37
2018-12-30T01:38:19.780Z,5.33
2018-12-30T01:41:24.890Z,9.43
2018-12-30T01:44:30.000Z,6.50
2018-12-30T01:47:35.148Z,5.43
2018-12-30T01:50:40.344Z,5.87
2018-12-30T01:53:45.766Z,4.43
2018-12-30T01:56:50.900Z,4.57
2018-12-30T01:59:56.012Z,4.47
2018-12-30T02:03:01.148Z,3.77
2018-12-30T02:06:06.342Z,5.20
2018-12-30T02:09:11.445Z,6.80
2018-12-30T02:12:16.563Z,3.43
2018-12-30T02:15:21.749Z,5.37
2018-12-30T02:18:26.873Z,8.27
2018-12-30T02:21:31.987Z,6.37
2018-12-30T02:24:37.114Z,9.90
2018-12-30T02:27:42.213Z,8.67
2018-12-30T02:30:47.402Z,12.33
2018-12-30T02:33:52.517Z,13.27
2018-12-30T02:36:57.627Z,15.87
2018-12-30T02:40:03.183Z,20.23
2018-12-30T02:43:08.332Z,19.40
2018-12-30T02:46:13.431Z,13.00
2018-12-30T02:49:18.582Z,17.47
2018-12-30T02:52:23.729Z,22.67
2018-12-30T02:55:28.868Z,13.80
2018-12-30T02:58:33.971Z,15.10
2018-12-30T03:01:39.136Z,18.53
2018-12-30T03:04:44.377Z,11.57
2018-12-30T03:07:49.471Z,15.50
2018-12-30T03:10:54.596Z,14.50
2018-12-30T03:13:59.710Z,16.70
2018-12-30T03:17:04.920Z,15.50
2018-12-30T03:20:10.095Z,16.20
2018-12-30T03:23:15.212Z,17.40
2018-12-30T03:26:20.317Z,15.83
2018-12-30T03:29:25.462Z,16.17
2018-12-30T03:32:30.562Z,23.87
2018-12-30T03:35:35.687Z,20.90
2018-12-30T03:38:40.801Z,23.60
2018-12-30T03:41:45.922Z,17.93
2018-12-30T03:44:51.035Z,19.50
2018-12-30T03:47:56.158Z,17.87
2018-12-30T03:51:01.236Z,21.13
2018-12-30T03:54:06.355Z,22.43
2018-12-30T03:57:11.456Z,16.37
2018-12-30T04:00:16.676Z,17.90
2018-12-30T04:03:21.795Z,14.63
2018-12-30T04:06:26.918Z,17.33
2018-12-30T04:09:32.028Z,18.40
2018-12-30T04:12:37.144Z,17.20
2018-12-30T04:15:42.235Z,15.60
2018-12-30T04:18:47.489Z,11.50
2018-12-30T04:21:52.587Z,10.77
2018-12-30T04:24:57.733Z,14.20
2018-12-30T04:28:02.849Z,13.80
2018-12-30T04:31:07.974Z,20.20
2018-12-30T04:34:13.115Z,13.20
2018-12-30T04:37:18.257Z,18.60
2018-12-30T04:40:23.365Z,15.13
2018-12-30T04:43:28.511Z,16.13
2018-12-30T04:46:33.604Z,16.20
2018-12-30T04:49:38.708Z,15.33
2018-12-30T04:52:43.843Z,20.13
2018-12-30T04:55:48.946Z,18.17
2018-12-30T04:58:54.097Z,18.13
2018-12-30T05:01:59.200Z,15.57
2018-12-30T05:05:04.337Z,9.33
2018-12-30T05:08:09.445Z,18.63
2018-12-30T05:11:14.567Z,15.20
2018-12-30T05:14:19.683Z,17.57
2018-12-30T05:17:24.810Z,20.47
2018-12-30T05:20:29.996Z,18.70
2018-12-30T05:23:35.113Z,14.40
2018-12-30T05:26:40.229Z,14.07
2018-12-30T05:29:45.365Z,13.40
2018-12-30T05:32:50.502Z,16.50
2018-12-30T05:35:55.590Z,16.60
2018-12-30T05:39:00.741Z,15.73
2018-12-30T05:42:05.840Z,16.13
2018-12-30T05:45:10.953Z,15.97
2018-12-30T05:48:16.090Z,14.30
2018-12-30T05:51:21.196Z,14.87
2018-12-30T05:54:26.306Z,17.33
2018-12-30T05:57:31.421Z,14.97
2018-12-30T06:00:36.547Z,12.07
2018-12-30T06:03:41.662Z,13.93
2018-12-30T06:06:46.799Z,14.70
2018-12-30T06:09:51.892Z,15.77
2018-12-30T06:12:57.012Z,12.40
2018-12-30T06:16:02.116Z,14.33
2018-12-30T06:19:07.246Z,12.47
2018-12-30T06:22:12.413Z,12.53
2018-12-30T06:25:17.612Z,17.23
2018-12-30T06:28:22.707Z,20.13
2018-12-30T06:31:27.851Z,14.87
2018-12-30T06:34:32.942Z,18.13
2018-12-30T06:37:38.079Z,24.87
2018-12-30T06:40:43.185Z,18.37
2018-12-30T06:43:48.325Z,16.50
2018-12-30T06:46:53.484Z,17.37
2018-12-30T06:49:58.609Z,14.50
2018-12-30T06:53:03.695Z,19.03
2018-12-30T06:56:08.891Z,15.83
2018-12-30T06:59:14.023Z,17.07
2018-12-30T07:02:19.310Z,14.70
2018-12-30T07:05:24.434Z,17.73
2018-12-30T07:08:29.534Z,19.80
2018-12-30T07:11:34.633Z,20.63
2018-12-30T07:14:39.764Z,24.33
2018-12-30T07:17:44.864Z,16.93
2018-12-30T07:20:49.989Z,17.07
2018-12-30T07:23:55.084Z,22.20
2018-12-30T07:27:00.225Z,22.13
2018-12-30T07:30:06.055Z,25.47
2018-12-30T07:33:11.196Z,18.67
2018-12-30T07:36:16.279Z,21.77
2018-12-30T07:39:21.445Z,16.70
2018-12-30T07:42:26.538Z,27.83
2018-12-30T07:45:31.669Z,17.53
2018-12-30T07:48:36.781Z,22.70
2018-12-30T07:51:41.911Z,25.87
2018-12-30T07:54:47.043Z,28.10
2018-12-30T07:57:52.265Z,21.80
2018-12-30T08:00:57.387Z,21.10
2018-12-30T08:04:02.521Z,24.70
2018-12-30T08:07:07.627Z,22.63
2018-12-30T08:10:12.757Z,24.87
2018-12-30T08:13:17.870Z,19.23
2018-12-30T08:16:23.089Z,23.27
2018-12-30T08:19:28.199Z,23.57
2018-12-30T08:22:34.695Z,17.17
2018-12-30T08:25:39.886Z,23.40
2018-12-30T08:28:45.456Z,18.50
2018-12-30T08:31:50.692Z,18.97
2018-12-30T08:34:55.935Z,24.50
2018-12-30T08:38:01.032Z,24.20
2018-12-30T08:41:06.262Z,20.83
2018-12-30T08:44:11.361Z,22.27
2018-12-30T08:47:16.503Z,25.73
2018-12-30T08:50:21.607Z,25.50
2018-12-30T08:53:29.483Z,23.43
2018-12-30T08:56:33.572Z,24.67
2018-12-30T08:59:38.685Z,31.77
2018-12-30T09:02:43.817Z,23.77
2018-12-30T09:05:48.970Z,16.97
2018-12-30T09:08:54.074Z,30.27
2018-12-30T09:11:59.217Z,19.53
2018-12-30T09:15:04.399Z,24.67
2018-12-30T09:18:09.547Z,30.67
2018-12-30T09:21:14.659Z,23.10
2018-12-30T09:24:19.801Z,27.97
2018-12-30T09:27:24.933Z,24.20
2018-12-30T09:30:30.722Z,30.87
2018-12-30T09:33:35.817Z,27.37
2018-12-30T09:36:40.957Z,28.03
2018-12-30T09:39:46.147Z,27.27
2018-12-30T09:42:51.288Z,28.33
2018-12-30T09:45:56.405Z,30.47
2018-12-30T09:49:01.523Z,23.60
2018-12-30T09:52:06.740Z,25.90
2018-12-30T09:55:11.935Z,20.43
2018-12-30T09:58:17.064Z,25.97
2018-12-30T10:01:22.306Z,23.73
2018-12-30T10:04:27.387Z,22.93
2018-12-30T10:07:32.497Z,27.17
2018-12-30T10:10:37.638Z,25.90
2018-12-30T10:13:42.776Z,21.63
2018-12-30T10:16:47.925Z,27.27
2018-12-30T10:19:53.043Z,26.80
2018-12-30T10:22:58.910Z,24.63
2018-12-30T10:26:04.373Z,20.30
2018-12-30T10:29:09.532Z,28.43
2018-12-30T10:32:14.651Z,22.00
2018-12-30T10:35:19.793Z,29.43
2018-12-30T10:38:24.937Z,23.00
2018-12-30T10:41:30.061Z,17.20
2018-12-30T10:44:35.180Z,24.70
2018-12-30T10:47:40.288Z,17.97
2018-12-30T10:50:45.428Z,26.37
2018-12-30T10:53:50.546Z,26.93
2018-12-30T10:56:55.644Z,17.40
2018-12-30T11:00:00.797Z,26.87
2018-12-30T11:03:06.005Z,23.90
2018-12-30T11:06:11.147Z,20.90
2018-12-30T11:09:16.250Z,19.43
2018-12-30T11:12:21.427Z,20.37
2018-12-30T11:15:26.548Z,18.93
2018-12-30T11:18:31.873Z,19.73
2018-12-30T11:21:37.161Z,25.07
2018-12-30T11:24:42.278Z,19.77
2018-12-30T11:27:47.422Z,19.70
2018-12-30T11:30:52.569Z,15.83
2018-12-30T11:33:57.772Z,14.93
2018-12-30T11:37:02.998Z,22.27
2018-12-30T11:40:08.425Z,21.57
2018-12-30T11:43:13.563Z,15.63
2018-12-30T11:46:18.685Z,17.00
2018-12-30T11:49:23.820Z,26.30
2018-12-30T11:52:28.978Z,16.40
2018-12-30T11:55:34.166Z,17.77
2018-12-30T11:58:39.378Z,20.97
2018-12-30T12:01:44.645Z,18.97
2018-12-30T12:04:49.791Z,20.43
2018-12-30T12:07:54.967Z,20.47
2018-12-30T12:11:00.109Z,13.03
2018-12-30T12:14:05.358Z,19.17
2018-12-30T12:17:10.481Z,16.90
2018-12-30T12:20:15.580Z,18.03
2018-12-30T12:23:20.732Z,15.30
2018-12-30T12:26:25.849Z,18.93
2018-12-30T12:29:30.973Z,17.67
2018-12-30T12:32:36.097Z,19.90
2018-12-30T12:35:41.241Z,19.20
2018-12-30T12:38:46.388Z,13.23
2018-12-30T12:41:51.523Z,13.60
2018-12-30T12:44:56.671Z,14.53
2018-12-30T12:48:01.771Z,21.47
2018-12-30T12:51:07.051Z,19.50
2018-12-30T12:54:12.166Z,15.40
2018-12-30T12:57:17.315Z,12.83
2018-12-30T13:00:22.524Z,11.13
2018-12-30T13:03:27.683Z,11.97
2018-12-30T13:06:32.805Z,8.77
2018-12-30T13:09:37.950Z,10.60
2018-12-30T13:12:43.106Z,20.33
2018-12-30T13:15:48.218Z,10.03
2018-12-30T13:18:53.349Z,21.37
2018-12-30T13:21:58.447Z,22.00
2018-12-30T13:25:03.673Z,15.17
2018-12-30T13:28:08.791Z,15.10
2018-12-30T13:31:13.996Z,17.30
2018-12-30T13:34:19.160Z,10.97
2018-12-30T13:37:24.270Z,23.23
2018-12-30T13:40:29.420Z,20.90
2018-12-30T13:43:34.530Z,16.53
2018-12-30T13:46:39.651Z,16.03
2018-12-30T13:49:44.815Z,14.00
2018-12-30T13:52:49.944Z,16.20
2018-12-30T13:55:55.114Z,21.17
2018-12-30T13:59:00.237Z,19.70
2018-12-30T14:02:05.516Z,14.40
2018-12-30T14:05:10.794Z,11.17
2018-12-30T14:08:16.776Z,17.33
2018-12-30T14:11:21.910Z,18.13
2018-12-30T14:14:27.066Z,15.70
2018-12-30T14:17:32.192Z,23.43
2018-12-30T14:20:37.320Z,15.83
2018-12-30T14:23:42.446Z,18.67
2018-12-30T14:26:47.582Z,15.63
2018-12-30T14:29:52.689Z,19.23
2018-12-30T14:32:57.806Z,17.43
2018-12-30T14:36:02.979Z,23.03
2018-12-30T14:39:09.462Z,18.50
2018-12-30T14:42:14.599Z,21.90
2018-12-30T14:45:19.874Z,22.37
2018-12-30T14:48:25.014Z,20.07
2018-12-30T14:51:30.148Z,18.07
2018-12-30T14:54:35.329Z,26.40
2018-12-30T14:57:40.461Z,17.20
2018-12-30T15:00:45.678Z,16.60
2018-12-30T15:03:50.800Z,26.53
2018-12-30T15:06:56.039Z,19.87
2018-12-30T15:10:01.175Z,18.90
2018-12-30T15:13:06.356Z,12.40
2018-12-30T15:16:11.563Z,21.10
2018-12-30T15:19:16.697Z,20.77
2018-12-30T15:22:21.810Z,20.47
2018-12-30T15:25:27.026Z,22.30
2018-12-30T15:28:32.213Z,16.87
2018-12-30T15:31:37.415Z,19.63
2018-12-30T15:34:42.535Z,33.77
2018-12-30T15:37:47.646Z,18.37
2018-12-30T15:40:52.775Z,19.47
2018-12-30T15:43:57.910Z,20.87
2018-12-30T15:47:03.017Z,20.73
2018-12-30T15:50:09.566Z,15.97
2018-12-30T15:53:14.673Z,41.50
2018-12-30T15:56:19.792Z,29.77
2018-12-30T15:59:24.913Z,28.20
2018-12-30T16:02:32.454Z,43.10
2018-12-30T16:05:37.754Z,17.43
2018-12-30T16:08:42.870Z,57.07
2018-12-30T16:11:47.978Z,37.43
2018-12-30T16:14:53.133Z,45.90
2018-12-30T16:17:58.326Z,28.03
2018-12-30T16:21:03.473Z,32.40
2018-12-30T16:24:08.596Z,18.97
2018-12-30T16:27:13.763Z,34.30
2018-12-30T16:30:18.949Z,34.90
2018-12-30T16:33:24.060Z,18.33
2018-12-30T16:36:29.216Z,21.30
2018-12-30T16:39:34.382Z,21.30
2018-12-30T16:42:39.581Z,49.00
2018-12-30T16:45:44.884Z,25.60
2018-12-30T16:48:50.187Z,29.97
2018-12-30T16:51:55.866Z,22.67
2018-12-30T16:55:01.031Z,30.87
2018-12-30T16:58:06.674Z,24.50
2018-12-30T17:01:12.641Z,31.13
2018-12-30T17:04:30.452Z,23.17
2018-12-30T17:07:36.836Z,25.33
2018-12-30T17:10:41.974Z,23.83
2018-12-30T17:13:47.264Z,26.60
2018-12-30T17:16:52.925Z,43.37
2018-12-30T17:19:58.268Z,38.10
2018-12-30T17:23:03.552Z,27.37
2018-12-30T17:26:37.276Z,44.70
2018-12-30T17:29:42.636Z,52.93
2018-12-30T17:32:47.933Z,54.90
2018-12-30T17:36:09.352Z,68.60
2018-12-30T17:39:14.556Z,60.57
2018-12-30T17:42:19.885Z,49.07
2018-12-30T17:45:25.137Z,38.23
2018-12-30T17:48:30.850Z,28.50
2018-12-30T17:51:36.058Z,31.53
2018-12-30T17:54:42.718Z,37.30
2018-12-30T17:57:47.848Z,26.27
2018-12-30T18:00:56.473Z,26.17
2018-12-30T18:04:01.720Z,35.60
2018-12-30T18:07:06.989Z,43.93
2018-12-30T18:10:12.305Z,34.10
2018-12-30T18:13:17.514Z,28.70
2018-12-30T18:16:22.830Z,23.57
2018-12-30T18:19:28.072Z,29.07
2018-12-30T18:22:33.300Z,27.93
2018-12-30T18:25:38.779Z,31.33
2018-12-30T18:28:43.994Z,35.57
2018-12-30T18:31:49.354Z,31.47
2018-12-30T18:34:54.545Z,32.40
2018-12-30T18:37:59.803Z,31.07
2018-12-30T18:41:05.139Z,32.47
2018-12-30T18:44:10.352Z,28.03
2018-12-30T18:47:15.609Z,25.20
2018-12-30T18:50:20.949Z,23.87
2018-12-30T18:53:26.290Z,47.47
2018-12-30T18:56:31.629Z,48.60
2018-12-30T18:59:36.875Z,48.37
2018-12-30T19:02:42.187Z,62.07
2018-12-30T19:05:47.501Z,69.47
2018-12-30T19:08:52.701Z,24.63
2018-12-30T19:11:57.966Z,22.43
2018-12-30T19:15:03.128Z,35.03
2018-12-30T19:18:08.323Z,34.83
2018-12-30T19:21:13.555Z,51.53
2018-12-30T19:24:18.817Z,45.97
2018-12-30T19:27:24.295Z,28.93
2018-12-30T19:30:29.501Z,23.10
2018-12-30T19:33:34.733Z,17.77
2018-12-30T19:36:40.001Z,26.20
2018-12-30T19:39:45.268Z,29.23
2018-12-30T19:42:50.568Z,21.23
2018-12-30T19:45:55.805Z,18.97
2018-12-30T19:49:00.929Z,25.60
2018-12-30T19:52:06.198Z,15.67
2018-12-30T19:55:11.420Z,16.70
2018-12-30T19:58:16.526Z,23.43
2018-12-30T20:01:21.675Z,15.10
2018-12-30T20:04:26.805Z,17.43
2018-12-30T20:07:31.957Z,17.53
2018-12-30T20:10:37.062Z,13.50
2018-12-30T20:13:42.295Z,20.13
2018-12-30T20:16:47.474Z,12.97
2018-12-30T20:19:52.660Z,18.00
2018-12-30T20:22:57.831Z,12.40
2018-12-30T20:26:03.179Z,16.67
2018-12-30T20:29:08.330Z,13.17
2018-12-30T20:32:13.497Z,16.70
2018-12-30T20:35:18.716Z,23.03
2018-12-30T20:38:23.946Z,32.10
2018-12-30T20:41:29.114Z,23.83
2018-12-30T20:44:34.342Z,76.23
2018-12-30T20:47:39.439Z,48.83
2018-12-30T20:50:44.620Z,48.57
2018-12-30T20:53:49.723Z,39.83
2018-12-30T20:56:54.892Z,25.83
2018-12-30T21:00:00.019Z,21.83
2018-12-30T21:03:05.241Z,24.37
2018-12-30T21:06:10.362Z,18.90
2018-12-30T21:09:15.555Z,19.77
2018-12-30T21:12:20.646Z,31.00
2018-12-30T21:15:25.857Z,27.93
2018-12-30T21:18:30.952Z,26.77
2018-12-30T21:21:36.101Z,17.47
2018-12-30T21:24:41.192Z,22.93
2018-12-30T21:27:46.302Z,26.07
2018-12-30T21:30:51.419Z,17.93
2018-12-30T21:33:56.549Z,14.93
2018-12-30T21:37:01.670Z,20.77
2018-12-30T21:40:07.787Z,19.43
2018-12-30T21:43:13.004Z,15.93
2018-12-30T21:46:18.133Z,22.10
2018-12-30T21:49:23.242Z,23.13
2018-12-30T21:52:28.345Z,29.27
2018-12-30T21:55:33.470Z,30.07
2018-12-30T21:58:38.611Z,21.37
2018-12-30T22:01:43.687Z,20.03
2018-12-30T22:04:48.821Z,16.43
2018-12-30T22:07:53.944Z,20.10
2018-12-30T22:10:59.074Z,16.60
2018-12-30T22:14:04.252Z,18.33
2018-12-30T22:17:09.457Z,25.47
2018-12-30T22:20:14.569Z,28.83
2018-12-30T22:23:19.662Z,20.97
2018-12-30T22:26:24.778Z,24.73
2018-12-30T22:29:29.877Z,17.07
2018-12-30T22:32:34.999Z,25.40
2018-12-30T22:35:40.261Z,20.27
2018-12-30T22:38:45.370Z,20.93
2018-12-30T22:41:50.626Z,18.10
2018-12-30T22:44:55.718Z,16.47
2018-12-30T22:48:00.818Z,17.50
2018-12-30T22:51:05.941Z,20.27
2018-12-30T22:54:11.029Z,21.00
2018-12-30T22:57:16.147Z,30.13
2018-12-30T23:00:39.600Z,44.43
2018-12-30T23:03:44.692Z,36.07
2018-12-30T23:06:49.830Z,45.13
2018-12-30T23:09:54.917Z,61.80
2018-12-30T23:13:00.019Z,57.83
2018-12-30T23:16:05.175Z,60.70
2018-12-30T23:19:10.248Z,91.00
2018-12-30T23:22:15.364Z,89.80
2018-12-30T23:25:20.465Z,31.80
2018-12-30T23:28:25.559Z,51.77
2018-12-30T23:31:30.721Z,24.47
2018-12-30T23:34:35.841Z,46.50
2018-12-30T23:37:40.954Z,36.53
2018-12-30T23:40:46.167Z,43.90
2018-12-30T23:43:51.293Z,52.23
2018-12-30T23:46:56.376Z,35.23
2018-12-30T23:50:01.520Z,49.23
2018-12-30T23:53:06.617Z,35.83
2018-12-30T23:56:11.805Z,68.60
2018-12-30T23:59:16.987Z,32.50
